Data for 12/03/2017

Time Sea-Level Adjusted Pressure Absolute Pressure Temperature Relative Humidity Dew Point   
(mb) (inHg) (mb) (inHg) (C) (F) (%) (C) (F)
00:05 1010 29.83 839 24.78 2.8 37 55 -5.3 22.4
00:10 1010 29.83 839 24.78 2.9 37.3 54 -5.6 21.9
00:15 1010 29.83 839 24.78 2.8 37.1 57 -4.8 23.4
00:20 1010 29.83 839 24.78 2.3 36.1 57 -5.3 22.5
00:25 1010 29.83 839 24.78 2.4 36.3 57 -5.3 22.4
00:30 1010 29.83 839 24.78 2.4 36.3 58 -5.1 22.9
00:35 1010 29.83 839 24.78 2.3 36.1 58 -5.2 22.6
00:40 1010 29.83 839 24.78 2.4 36.3 56 -5.6 22
00:45 1009 29.8 839 24.78 2.6 36.7 56 -5.2 22.6
00:50 1009 29.8 839 24.78 2.3 36.1 59 -4.9 23.3
00:55 1009 29.8 838 24.75 2.2 36 58 -5.3 22.4
01:00 1009 29.8 838 24.75 2.5 36.5 54 -5.8 21.5
01:05 1009 29.8 838 24.75 2.8 37 52 -6.1 20.9
01:10 1009 29.8 838 24.75 3.2 37.7 51 -6 21.2
01:15 1009 29.8 838 24.75 3.2 37.8 52 -5.8 21.6
01:20 1009 29.8 838 24.75 3.1 37.6 52 -5.7 21.7
01:25 1009 29.8 838 24.75 3.1 37.7 51 -6 21.2
01:30 1009 29.8 838 24.75 3.3 37.9 51 -6 21.2
01:35 1009 29.8 838 24.75 3.5 38.2 50 -6 21.2
01:40 1009 29.8 838 24.75 3.6 38.5 50 -5.8 21.5
01:45 1009 29.8 838 24.75 3.7 38.7 50 -5.7 21.7
01:50 1008 29.77 838 24.75 3.8 38.9 50 -5.8 21.6
01:55 1008 29.77 838 24.75 4.5 40 48 -5.6 22
02:00 1008 29.77 838 24.75 4.6 40.4 49 -5.1 22.9
02:05 1008 29.77 838 24.75 4 39.3 52 -4.9 23.1
02:10 1008 29.77 837 24.72 4 39.2 52 -5 23
02:15 1008 29.77 837 24.72 3.9 39 54 -4.6 23.6
02:20 1008 29.77 837 24.72 3.9 39 55 -4.3 24.3
02:25 1008 29.77 837 24.72 4.1 39.4 55 -4.2 24.4
02:30 1008 29.77 837 24.72 4.1 39.4 54 -4.4 24.1
02:35 1008 29.77 837 24.72 3.8 38.9 55 -4.4 24
02:40 1008 29.77 837 24.72 3.6 38.4 55 -4.6 23.7
02:45 1008 29.77 837 24.72 3.4 38.1 56 -4.5 23.8
02:50 1008 29.77 837 24.72 3.5 38.3 56 -4.6 23.8
02:55 1008 29.77 837 24.72 3.6 38.4 54 -4.9 23.1
03:00 1008 29.77 837 24.72 3.5 38.3 54 -4.8 23.3
03:05 1008 29.77 837 24.72 3.4 38.2 54 -4.9 23.2
03:10 1008 29.77 837 24.72 3.4 38.1 55 -4.9 23.2
03:15 1008 29.77 837 24.72 3.3 37.9 55 -4.9 23.2
03:20 1008 29.77 837 24.72 3 37.5 56 -4.8 23.3
03:25 1008 29.77 837 24.72 2.9 37.2 57 -4.8 23.3
03:30 1008 29.77 837 24.72 2.7 36.8 58 -4.7 23.6
03:35 1008 29.77 837 24.72 2.5 36.5 59 -4.6 23.6
03:40 1008 29.77 837 24.72 2.3 36.2 61 -4.4 24
03:45 1008 29.77 837 24.72 2 35.7 64 -4.2 24.5
03:50 1008 29.77 837 24.72 1.7 35.1 65 -4.1 24.6
03:55 1008 29.77 837 24.72 1.4 34.6 65 -4.4 24.1
04:00 1008 29.77 837 24.72 1.6 34.8 65 -4.4 24.1
04:05 1008 29.77 837 24.72 1.8 35.2 63 -4.4 24
04:10 1008 29.77 837 24.72 1.9 35.5 63 -4.4 24.1
04:15 1007 29.74 837 24.72 1.8 35.3 63 -4.4 24
04:20 1007 29.74 837 24.72 1.9 35.5 62 -4.5 23.9
04:25 1007 29.74 836 24.69 1.9 35.4 62 -4.6 23.7
04:30 1007 29.74 836 24.69 2 35.6 60 -4.9 23.3
04:35 1007 29.74 836 24.69 2.3 36.2 60 -4.6 23.7
04:40 1007 29.74 836 24.69 2.4 36.3 61 -4.4 24.1
04:45 1007 29.74 836 24.69 2 35.6 63 -4.2 24.4
04:50 1007 29.74 836 24.69 1.8 35.2 64 -4.4 24.1
04:55 1007 29.74 836 24.69 1.8 35.3 64 -4.4 24.2
05:00 1007 29.74 836 24.69 1.8 35.2 65 -4.2 24.5
05:05 1007 29.74 836 24.69 1.6 34.8 66 -4.1 24.6
05:10 1007 29.74 836 24.69 1.5 34.7 66 -4.2 24.4
05:15 1007 29.74 836 24.69 1.5 34.8 65 -4.3 24.3
05:20 1007 29.74 836 24.69 1.6 34.9 65 -4.2 24.5
05:25 1007 29.74 836 24.69 1.6 34.9 65 -4.3 24.2
05:30 1006 29.71 836 24.69 1.8 35.2 64 -4.3 24.2
05:35 1006 29.71 836 24.69 1.9 35.4 64 -4.2 24.4
05:40 1006 29.71 836 24.69 2 35.5 63 -4.3 24.2
05:45 1006 29.71 836 24.69 2.1 35.8 62 -4.4 24.2
05:50 1006 29.71 836 24.69 2.2 36 62 -4.2 24.4
05:55 1006 29.71 835 24.66 2.3 36.2 62 -4.3 24.2
06:00 1006 29.71 835 24.66 2.4 36.3 61 -4.3 24.3
06:05 1006 29.71 835 24.66 2.4 36.3 61 -4.3 24.2
06:10 1006 29.71 835 24.66 2.4 36.4 62 -4.2 24.5
06:15 1006 29.71 836 24.69 2.4 36.3 61 -4.3 24.3
06:20 1006 29.71 836 24.69 2.3 36.2 63 -4 24.7
06:25 1006 29.71 836 24.69 2.6 36.6 61 -4.1 24.6
06:30 1006 29.71 836 24.69 2.5 36.5 62 -4.2 24.5
06:35 1007 29.74 836 24.69 2.6 36.6 62 -4 24.9
06:40 1007 29.74 836 24.69 2.5 36.5 63 -3.9 24.9
06:45 1007 29.74 836 24.69 2.4 36.3 61 -4.3 24.2
06:50 1007 29.74 836 24.69 2.6 36.6 62 -4 24.8
06:55 1007 29.74 836 24.69 2.8 37 59 -4.4 24.1
07:00 1007 29.74 836 24.69 3 37.4 60 -4 24.7
07:05 1007 29.74 836 24.69 2.8 37.1 61 -3.9 25
07:10 1007 29.74 836 24.69 2.5 36.5 63 -3.9 24.9
07:15 1007 29.74 836 24.69 2.4 36.4 61 -4.3 24.3
07:20 1007 29.74 836 24.69 2.5 36.6 63 -3.9 25
07:25 1007 29.74 836 24.69 2.4 36.2 60 -4.6 23.7
07:30 1006 29.71 836 24.69 2.5 36.5 61 -4.3 24.3
07:35 1006 29.71 836 24.69 2.7 36.9 60 -4.3 24.3
07:40 1006 29.71 836 24.69 2.8 37 61 -4 24.9
07:45 1006 29.71 836 24.69 2.4 36.4 64 -3.8 25.2
07:50 1006 29.71 835 24.66 2.2 36 64 -3.8 25.1
07:55 1006 29.71 835 24.66 2.3 36.2 65 -3.7 25.4
08:00 1006 29.71 835 24.66 2.3 36.2 66 -3.4 25.8
08:05 1006 29.71 835 24.66 2.3 36.2 67 -3.2 26.2
08:10 1006 29.71 835 24.66 2.7 36.8 66 -3 26.6
08:15 1006 29.71 835 24.66 2.8 37.1 67 -2.8 27
08:20 1006 29.71 835 24.66 2.8 37.1 70 -2.2 28.1
08:25 1006 29.71 835 24.66 2.8 37 70 -2.1 28.2
08:30 1006 29.71 835 24.66 2.7 36.8 72 -2 28.5
08:35 1006 29.71 835 24.66 2.6 36.6 74 -1.6 29
08:40 1006 29.71 835 24.66 2.5 36.6 74 -1.6 29.1
08:45 1006 29.71 835 24.66 2.5 36.5 76 -1.3 29.7
08:50 1006 29.71 835 24.66 2.3 36.2 79 -0.9 30.3
08:55 1005 29.68 835 24.66 2.2 36 79 -1 30.3
09:00 1005 29.68 834 24.63 2.2 36 79 -1.1 30.1
09:05 1005 29.68 834 24.63 2.4 36.3 79 -0.9 30.4
09:10 1005 29.68 834 24.63 2.5 36.5 78 -0.9 30.4
09:15 1005 29.68 834 24.63 2.5 36.5 79 -0.9 30.5
09:20 1005 29.68 834 24.63 2.5 36.4 78 -0.9 30.4
09:25 1005 29.68 834 24.63 2.4 36.4 78 -0.9 30.3
09:30 1005 29.68 834 24.63 2.7 36.8 77 -0.9 30.3
09:35 1005 29.68 834 24.63 2.9 37.3 76 -0.9 30.4
09:40 1005 29.68 834 24.63 3 37.5 75 -0.9 30.4
09:45 1005 29.68 834 24.63 3.2 37.7 75 -0.8 30.5
09:50 1005 29.68 834 24.63 3.3 37.9 74 -0.9 30.4
09:55 1005 29.68 834 24.63 3.3 38 74 -0.9 30.5
10:00 1005 29.68 834 24.63 3.3 38 73 -1.1 30
10:05 1005 29.68 834 24.63 3.6 38.5 70 -1.4 29.5
10:10 1005 29.68 834 24.63 3.8 38.8 69 -1.3 29.6
10:15 1005 29.68 834 24.63 3.9 39 68 -1.4 29.4
10:20 1005 29.68 834 24.63 4.2 39.6 67 -1.4 29.6
10:25 1005 29.68 834 24.63 4.4 39.9 67 -1.2 29.9
10:30 1005 29.68 834 24.63 4.4 39.9 69 -0.8 30.5
10:35 1005 29.68 835 24.66 4.1 39.3 71 -0.7 30.7
10:40 1006 29.71 835 24.66 3.5 38.3 71 -1.2 29.8
10:45 1006 29.71 835 24.66 2.8 37.1 70 -2.1 28.2
10:50 1006 29.71 835 24.66 2.3 36.2 72 -2.3 27.9
10:55 1006 29.71 835 24.66 1.9 35.4 74 -2.2 28.1
11:00 1006 29.71 835 24.66 1.7 35.1 75 -2.2 28.1
11:05 1006 29.71 835 24.66 1.5 34.7 78 -2 28.4
11:10 1006 29.71 835 24.66 1.4 34.4 81 -1.5 29.3
11:15 1006 29.71 835 24.66 1 33.8 85 -1.3 29.7
11:20 1005 29.68 835 24.66 0.8 33.5 87 -1.1 30.1
11:25 1005 29.68 834 24.63 0.7 33.2 89 -1 30.2
11:30 1005 29.68 835 24.66 0.5 32.9 90 -1 30.2
11:35 1005 29.68 835 24.66 0.3 32.6 91 -1 30.1
11:40 1006 29.71 835 24.66 0.2 32.4 91 -1 30.2
11:45 1006 29.71 835 24.66 0.1 32.1 91 -1.2 29.8
11:50 1006 29.71 835 24.66 -0.1 31.8 92 -1.3 29.6
11:55 1006 29.71 835 24.66 -0.2 31.6 92 -1.3 29.6
12:00 1006 29.71 835 24.66 -0.3 31.5 93 -1.3 29.6
12:05 1006 29.71 835 24.66 -0.3 31.5 93 -1.3 29.7
12:10 1006 29.71 835 24.66 -0.3 31.5 93 -1.3 29.7
12:15 1006 29.71 835 24.66 -0.3 31.5 93 -1.3 29.7
12:20 1006 29.71 836 24.69 -0.3 31.4 93 -1.3 29.6
12:25 1006 29.71 836 24.69 -0.4 31.2 93 -1.4 29.5
12:30 1006 29.71 836 24.69 -0.5 31.2 93 -1.4 29.4
12:35 1006 29.71 836 24.69 -0.5 31.1 93 -1.5 29.4
12:40 1007 29.74 836 24.69 -0.5 31.1 93 -1.5 29.3
12:45 1006 29.71 836 24.69 -0.5 31 93 -1.5 29.3
12:50 1006 29.71 836 24.69 -0.5 31.1 94 -1.4 29.4
12:55 1006 29.71 836 24.69 -0.5 31.2 94 -1.4 29.5
13:00 1006 29.71 836 24.69 -0.5 31.2 94 -1.4 29.6
13:05 1007 29.74 836 24.69 -0.5 31.2 94 -1.3 29.6
13:10 1007 29.74 836 24.69 -0.5 31.1 94 -1.4 29.5
13:15 1007 29.74 836 24.69 -0.5 31.1 94 -1.4 29.5
13:20 1007 29.74 836 24.69 -0.4 31.2 94 -1.3 29.7
13:25 1007 29.74 836 24.69 -0.3 31.4 94 -1.2 29.8
13:30 1007 29.74 836 24.69 -0.4 31.3 94 -1.3 29.7
13:35 1007 29.74 836 24.69 -0.4 31.3 94 -1.3 29.7
13:40 1007 29.74 836 24.69 -0.4 31.3 94 -1.2 29.8
13:45 1007 29.74 836 24.69 -0.4 31.3 94 -1.3 29.7
13:50 1007 29.74 836 24.69 -0.4 31.2 94 -1.3 29.7
13:55 1007 29.74 836 24.69 -0.5 31.2 94 -1.3 29.6
14:00 1007 29.74 836 24.69 -0.5 31.2 94 -1.3 29.6
14:05 1007 29.74 836 24.69 -0.5 31.1 94 -1.3 29.6
14:10 1007 29.74 836 24.69 -0.5 31.2 94 -1.3 29.6
14:15 1007 29.74 836 24.69 -0.4 31.2 94 -1.3 29.7
14:20 1007 29.74 836 24.69 -0.4 31.2 94 -1.3 29.7
14:25 1007 29.74 837 24.72 -0.4 31.3 94 -1.3 29.7
14:30 1007 29.74 837 24.72 -0.5 31.2 94 -1.3 29.6
14:35 1007 29.74 837 24.72 -0.4 31.2 94 -1.3 29.7
14:40 1008 29.77 837 24.72 -0.4 31.2 94 -1.3 29.7
14:45 1008 29.77 837 24.72 -0.4 31.2 94 -1.3 29.7
14:50 1008 29.77 837 24.72 -0.4 31.2 94 -1.3 29.6
14:55 1008 29.77 837 24.72 -0.5 31.2 94 -1.3 29.6
15:00 1008 29.77 837 24.72 -0.5 31.2 94 -1.3 29.6
15:05 1008 29.77 837 24.72 -0.5 31.2 94 -1.3 29.6
15:10 1008 29.77 837 24.72 -0.5 31.1 94 -1.3 29.6
15:15 1008 29.77 837 24.72 -0.5 31.2 94 -1.3 29.6
15:20 1008 29.77 837 24.72 -0.5 31.2 94 -1.3 29.6
15:25 1008 29.77 837 24.72 -0.5 31.2 94 -1.3 29.6
15:30 1008 29.77 837 24.72 -0.5 31.1 94 -1.3 29.6
15:35 1008 29.77 837 24.72 -0.5 31 94 -1.4 29.5
15:40 1008 29.77 837 24.72 -0.5 31 94 -1.4 29.5
15:45 1008 29.77 838 24.75 -0.6 31 94 -1.4 29.5
15:50 1008 29.77 838 24.75 -0.6 31 94 -1.4 29.4
15:55 1009 29.8 838 24.75 -0.6 31 94 -1.4 29.4
16:00 1009 29.8 838 24.75 -0.6 30.9 94 -1.5 29.3
16:05 1009 29.8 838 24.75 -0.6 30.9 94 -1.5 29.3
16:10 1009 29.8 838 24.75 -0.7 30.8 94 -1.5 29.3
16:15 1009 29.8 838 24.75 -0.7 30.7 94 -1.6 29.2
16:20 1009 29.8 838 24.75 -0.8 30.5 94 -1.7 29
16:25 1009 29.8 838 24.75 -0.9 30.4 94 -1.8 28.8
16:30 1009 29.8 838 24.75 -1 30.3 94 -1.8 28.7
16:35 1009 29.8 839 24.78 -1 30.2 94 -1.8 28.7
16:40 1009 29.8 839 24.78 -1 30.2 94 -1.8 28.7
16:45 1009 29.8 839 24.78 -1 30.2 94 -1.8 28.7
16:50 1010 29.83 839 24.78 -1 30.2 94 -1.8 28.7
16:55 1010 29.83 839 24.78 -1 30.3 94 -1.8 28.7
17:00 1010 29.83 839 24.78 -0.9 30.3 94 -1.8 28.8
17:05 1010 29.83 839 24.78 -1 30.3 94 -1.8 28.7
17:10 1010 29.83 839 24.78 -1 30.3 94 -1.8 28.8
17:15 1010 29.83 839 24.78 -0.9 30.3 94 -1.8 28.8
17:20 1010 29.83 839 24.78 -0.9 30.4 94 -1.7 28.9
17:25 1010 29.83 839 24.78 -0.9 30.4 94 -1.7 28.9
17:30 1010 29.83 839 24.78 -1 30.3 94 -1.8 28.8
17:35 1010 29.83 839 24.78 -1 30.2 94 -1.8 28.7
17:40 1010 29.83 840 24.81 -1 30.1 94 -1.9 28.6
17:45 1010 29.83 840 24.81 -1.1 30.1 94 -1.9 28.6
17:50 1010 29.83 840 24.81 -1.1 30 94 -1.9 28.6
17:55 1010 29.83 840 24.81 -1.1 30 94 -1.9 28.5
18:00 1010 29.83 840 24.81 -1.1 29.9 94 -2 28.5
18:05 1010 29.83 840 24.81 -1.1 29.9 94 -2 28.5
18:10 1010 29.83 840 24.81 -1.2 29.8 94 -2 28.4
18:15 1010 29.83 840 24.81 -1.2 29.8 94 -2.1 28.3
18:20 1010 29.83 839 24.78 -1.3 29.7 94 -2.1 28.2
18:25 1010 29.83 839 24.78 -1.3 29.7 94 -2.1 28.2
18:30 1010 29.83 839 24.78 -1.3 29.6 94 -2.2 28.1
18:35 1010 29.83 839 24.78 -1.4 29.5 94 -2.2 28.1
18:40 1010 29.83 839 24.78 -1.4 29.5 94 -2.2 28
18:45 1010 29.83 839 24.78 -1.4 29.5 94 -2.2 28.1
18:50 1010 29.83 839 24.78 -1.4 29.5 94 -2.2 28
18:55 1010 29.83 839 24.78 -1.4 29.6 94 -2.2 28.1
19:00 1010 29.83 839 24.78 -1.3 29.6 94 -2.1 28.1
19:05 1010 29.83 839 24.78 -1.3 29.6 94 -2.2 28.1
19:10 1010 29.83 839 24.78 -1.4 29.5 94 -2.2 28.1
19:15 1010 29.83 840 24.81 -1.3 29.6 94 -2.2 28.1
19:20 1011 29.85 840 24.81 -1.4 29.5 94 -2.2 28.1
19:25 1011 29.85 840 24.81 -1.4 29.5 94 -2.2 28
19:30 1011 29.85 840 24.81 -1.4 29.5 94 -2.2 28
19:35 1011 29.85 840 24.81 -1.4 29.5 94 -2.2 28.1
19:40 1011 29.85 840 24.81 -1.4 29.5 94 -2.2 28
19:45 1011 29.85 840 24.81 -1.4 29.4 94 -2.3 27.9
19:50 1011 29.85 840 24.81 -1.5 29.3 94 -2.3 27.8
19:55 1011 29.85 840 24.81 -1.5 29.2 94 -2.3 27.8
20:00 1011 29.85 841 24.83 -1.6 29.2 94 -2.4 27.7
20:05 1011 29.85 841 24.83 -1.6 29.2 94 -2.4 27.7
20:10 1011 29.85 841 24.83 -1.6 29.2 94 -2.4 27.7
20:15 1012 29.88 841 24.83 -1.6 29.2 94 -2.4 27.7
20:20 1012 29.88 841 24.83 -1.6 29.1 94 -2.4 27.6
20:25 1012 29.88 841 24.83 -1.6 29.1 94 -2.4 27.6
20:30 1012 29.88 841 24.83 -1.6 29.1 94 -2.4 27.6
20:35 1012 29.88 841 24.83 -1.7 29 94 -2.5 27.6
20:40 1012 29.88 841 24.83 -1.7 28.9 94 -2.5 27.5
20:45 1012 29.88 841 24.83 -1.7 28.9 94 -2.5 27.5
20:50 1012 29.88 841 24.83 -1.7 28.9 94 -2.5 27.5
20:55 1012 29.88 841 24.83 -1.7 28.9 94 -2.6 27.4
21:00 1012 29.88 842 24.86 -1.8 28.8 94 -2.6 27.4
21:05 1013 29.91 842 24.86 -1.8 28.8 94 -2.6 27.3
21:10 1013 29.91 842 24.86 -1.8 28.7 94 -2.6 27.3
21:15 1013 29.91 842 24.86 -1.9 28.7 94 -2.7 27.2
21:20 1013 29.91 842 24.86 -1.9 28.6 94 -2.7 27.1
21:25 1013 29.91 842 24.86 -1.9 28.5 94 -2.7 27.1
21:30 1013 29.91 842 24.86 -2 28.5 94 -2.8 27
21:35 1013 29.91 843 24.89 -2 28.5 94 -2.8 27
21:40 1013 29.91 843 24.89 -2 28.4 94 -2.8 26.9
21:45 1014 29.94 843 24.89 -2 28.4 94 -2.8 26.9
21:50 1014 29.94 843 24.89 -2.1 28.3 94 -2.9 26.8
21:55 1014 29.94 843 24.89 -2.1 28.2 94 -3 26.7
22:00 1014 29.94 843 24.89 -2.2 28.1 94 -3 26.6
22:05 1014 29.94 843 24.89 -2.2 28 94 -3 26.6
22:10 1014 29.94 843 24.89 -2.3 27.9 94 -3.1 26.5
22:15 1014 29.94 843 24.89 -2.3 27.9 94 -3.1 26.4
22:20 1014 29.94 843 24.89 -2.3 27.8 94 -3.1 26.3
22:25 1014 29.94 843 24.89 -2.3 27.8 94 -3.2 26.3
22:30 1014 29.94 844 24.92 -2.4 27.7 94 -3.2 26.2
22:35 1014 29.94 844 24.92 -2.4 27.7 94 -3.2 26.2
22:40 1014 29.94 844 24.92 -2.4 27.7 94 -3.2 26.2
22:45 1015 29.97 844 24.92 -2.4 27.7 94 -3.2 26.2
22:50 1015 29.97 844 24.92 -2.4 27.6 94 -3.3 26.1
22:55 1015 29.97 844 24.92 -2.5 27.6 94 -3.3 26.1
23:00 1015 29.97 844 24.92 -2.5 27.5 94 -3.3 26
23:05 1015 29.97 844 24.92 -2.5 27.5 94 -3.4 26
23:10 1015 29.97 844 24.92 -2.5 27.4 94 -3.4 25.9
23:15 1015 29.97 844 24.92 -2.6 27.4 94 -3.4 25.9
23:20 1015 29.97 844 24.92 -2.6 27.3 94 -3.4 25.8
23:25 1015 29.97 844 24.92 -2.6 27.3 94 -3.5 25.8
23:30 1015 29.97 844 24.92 -2.7 27.2 94 -3.5 25.7
23:35 1015 29.97 845 24.95 -2.7 27.1 94 -3.5 25.6
23:40 1015 29.97 845 24.95 -2.8 27 94 -3.6 25.5
23:45 1015 29.97 845 24.95 -2.8 26.9 94 -3.7 25.4
23:50 1016 30 845 24.95 -2.9 26.8 94 -3.8 25.2
23:55 1016 30 845 24.95 -3 26.7 94 -3.8 25.1
24:00 1016 30 845 24.95 -3 26.6 94 -3.9 25